sensor_id;sensor_type;location;lat;lon;timestamp;P1;durP1;ratioP1;P2;durP2;ratioP2
76310;SDS011;65120;59.304;18.294;2023-03-12T00:01:39;4.93;;;0.60;;
76310;SDS011;65120;59.304;18.294;2023-03-12T00:04:06;2.30;;;0.63;;
76310;SDS011;65120;59.304;18.294;2023-03-12T00:06:33;5.15;;;0.90;;
76310;SDS011;65120;59.304;18.294;2023-03-12T00:09:00;2.75;;;0.60;;
76310;SDS011;65120;59.304;18.294;2023-03-12T00:11:28;3.60;;;0.55;;
76310;SDS011;65120;59.304;18.294;2023-03-12T00:13:57;0.90;;;0.60;;
76310;SDS011;65120;59.304;18.294;2023-03-12T00:16:25;1.92;;;0.60;;
76310;SDS011;65120;59.304;18.294;2023-03-12T00:18:53;1.58;;;0.65;;
76310;SDS011;65120;59.304;18.294;2023-03-12T00:21:20;3.40;;;0.88;;
76310;SDS011;65120;59.304;18.294;2023-03-12T00:23:48;4.82;;;0.80;;
76310;SDS011;65120;59.304;18.294;2023-03-12T00:26:16;5.10;;;0.68;;
76310;SDS011;65120;59.304;18.294;2023-03-12T00:28:45;2.70;;;0.80;;
76310;SDS011;65120;59.304;18.294;2023-03-12T00:31:15;1.45;;;0.55;;
76310;SDS011;65120;59.304;18.294;2023-03-12T00:33:43;3.10;;;0.60;;
76310;SDS011;65120;59.304;18.294;2023-03-12T00:36:10;1.98;;;0.50;;
76310;SDS011;65120;59.304;18.294;2023-03-12T00:38:37;1.88;;;0.47;;
76310;SDS011;65120;59.304;18.294;2023-03-12T00:41:04;3.28;;;0.65;;
76310;SDS011;65120;59.304;18.294;2023-03-12T00:43:31;1.20;;;0.52;;
76310;SDS011;65120;59.304;18.294;2023-03-12T00:45:58;4.10;;;0.70;;
76310;SDS011;65120;59.304;18.294;2023-03-12T00:48:26;1.88;;;0.70;;
76310;SDS011;65120;59.304;18.294;2023-03-12T00:50:53;2.45;;;0.50;;
76310;SDS011;65120;59.304;18.294;2023-03-12T00:53:20;2.50;;;0.60;;
76310;SDS011;65120;59.304;18.294;2023-03-12T00:55:47;2.92;;;0.50;;
76310;SDS011;65120;59.304;18.294;2023-03-12T00:58:14;2.42;;;0.68;;
76310;SDS011;65120;59.304;18.294;2023-03-12T01:00:41;3.90;;;0.57;;
76310;SDS011;65120;59.304;18.294;2023-03-12T01:03:08;3.03;;;1.00;;
76310;SDS011;65120;59.304;18.294;2023-03-12T01:05:36;3.10;;;0.50;;
76310;SDS011;65120;59.304;18.294;2023-03-12T01:08:05;2.53;;;0.85;;
76310;SDS011;65120;59.304;18.294;2023-03-12T01:10:32;2.60;;;0.80;;
76310;SDS011;65120;59.304;18.294;2023-03-12T01:13:00;4.00;;;0.80;;
76310;SDS011;65120;59.304;18.294;2023-03-12T01:15:27;2.03;;;0.70;;
76310;SDS011;65120;59.304;18.294;2023-03-12T01:17:54;1.95;;;0.70;;
76310;SDS011;65120;59.304;18.294;2023-03-12T01:20:21;5.53;;;0.65;;
76310;SDS011;65120;59.304;18.294;2023-03-12T01:22:50;3.42;;;0.75;;
76310;SDS011;65120;59.304;18.294;2023-03-12T01:25:17;1.65;;;0.57;;
76310;SDS011;65120;59.304;18.294;2023-03-12T01:27:44;3.47;;;0.80;;
76310;SDS011;65120;59.304;18.294;2023-03-12T01:30:11;2.67;;;0.73;;
76310;SDS011;65120;59.304;18.294;2023-03-12T01:32:38;0.82;;;0.57;;
76310;SDS011;65120;59.304;18.294;2023-03-12T01:35:06;3.72;;;0.60;;
76310;SDS011;65120;59.304;18.294;2023-03-12T01:37:33;3.05;;;0.57;;
76310;SDS011;65120;59.304;18.294;2023-03-12T01:40:01;3.25;;;0.50;;
76310;SDS011;65120;59.304;18.294;2023-03-12T01:42:29;0.60;;;0.45;;
76310;SDS011;65120;59.304;18.294;2023-03-12T01:44:56;3.60;;;0.85;;
76310;SDS011;65120;59.304;18.294;2023-03-12T01:47:25;3.38;;;0.90;;
76310;SDS011;65120;59.304;18.294;2023-03-12T01:49:55;5.75;;;0.70;;
76310;SDS011;65120;59.304;18.294;2023-03-12T01:52:24;2.20;;;0.50;;
76310;SDS011;65120;59.304;18.294;2023-03-12T01:54:55;4.57;;;1.17;;
76310;SDS011;65120;59.304;18.294;2023-03-12T01:57:29;1.55;;;0.52;;
76310;SDS011;65120;59.304;18.294;2023-03-12T02:00:00;2.17;;;0.95;;
76310;SDS011;65120;59.304;18.294;2023-03-12T02:02:31;1.83;;;0.90;;
76310;SDS011;65120;59.304;18.294;2023-03-12T02:05:03;3.60;;;0.70;;
76310;SDS011;65120;59.304;18.294;2023-03-12T02:07:37;2.55;;;0.70;;
76310;SDS011;65120;59.304;18.294;2023-03-12T02:10:04;5.40;;;0.90;;
76310;SDS011;65120;59.304;18.294;2023-03-12T02:12:32;2.03;;;0.70;;
76310;SDS011;65120;59.304;18.294;2023-03-12T02:14:59;4.45;;;0.60;;
76310;SDS011;65120;59.304;18.294;2023-03-12T02:17:26;1.20;;;0.50;;
76310;SDS011;65120;59.304;18.294;2023-03-12T02:19:56;4.90;;;0.70;;
76310;SDS011;65120;59.304;18.294;2023-03-12T02:22:32;3.10;;;0.73;;
76310;SDS011;65120;59.304;18.294;2023-03-12T02:25:01;2.17;;;0.80;;
76310;SDS011;65120;59.304;18.294;2023-03-12T02:27:33;1.55;;;0.80;;
76310;SDS011;65120;59.304;18.294;2023-03-12T02:30:03;1.77;;;0.70;;
76310;SDS011;65120;59.304;18.294;2023-03-12T02:32:32;2.38;;;0.60;;
76310;SDS011;65120;59.304;18.294;2023-03-12T02:35:03;1.00;;;0.45;;
76310;SDS011;65120;59.304;18.294;2023-03-12T02:37:31;0.95;;;0.40;;
76310;SDS011;65120;59.304;18.294;2023-03-12T02:39:59;3.70;;;0.45;;
76310;SDS011;65120;59.304;18.294;2023-03-12T02:42:31;1.63;;;0.32;;
76310;SDS011;65120;59.304;18.294;2023-03-12T02:44:59;4.28;;;0.70;;
76310;SDS011;65120;59.304;18.294;2023-03-12T02:47:27;2.97;;;0.60;;
76310;SDS011;65120;59.304;18.294;2023-03-12T02:49:54;3.63;;;0.65;;
76310;SDS011;65120;59.304;18.294;2023-03-12T02:52:21;1.27;;;0.40;;
76310;SDS011;65120;59.304;18.294;2023-03-12T02:54:48;0.90;;;0.52;;
76310;SDS011;65120;59.304;18.294;2023-03-12T02:57:15;4.90;;;0.55;;
76310;SDS011;65120;59.304;18.294;2023-03-12T02:59:43;1.77;;;0.82;;
76310;SDS011;65120;59.304;18.294;2023-03-12T03:02:10;1.08;;;0.50;;
76310;SDS011;65120;59.304;18.294;2023-03-12T03:04:37;1.23;;;0.47;;
76310;SDS011;65120;59.304;18.294;2023-03-12T03:07:04;3.10;;;0.60;;
76310;SDS011;65120;59.304;18.294;2023-03-12T03:09:31;1.52;;;0.70;;
76310;SDS011;65120;59.304;18.294;2023-03-12T03:11:58;1.95;;;0.40;;
76310;SDS011;65120;59.304;18.294;2023-03-12T03:14:25;1.75;;;0.50;;
76310;SDS011;65120;59.304;18.294;2023-03-12T03:16:53;0.90;;;0.40;;
76310;SDS011;65120;59.304;18.294;2023-03-12T03:19:20;2.35;;;0.50;;
76310;SDS011;65120;59.304;18.294;2023-03-12T03:21:47;2.15;;;0.60;;
76310;SDS011;65120;59.304;18.294;2023-03-12T03:24:14;3.00;;;0.60;;
76310;SDS011;65120;59.304;18.294;2023-03-12T03:26:41;0.95;;;0.25;;
76310;SDS011;65120;59.304;18.294;2023-03-12T03:29:08;1.83;;;0.55;;
76310;SDS011;65120;59.304;18.294;2023-03-12T03:31:35;6.22;;;0.43;;
76310;SDS011;65120;59.304;18.294;2023-03-12T03:34:03;1.00;;;0.30;;
76310;SDS011;65120;59.304;18.294;2023-03-12T03:36:31;1.77;;;0.40;;
76310;SDS011;65120;59.304;18.294;2023-03-12T03:38:57;1.35;;;0.40;;
76310;SDS011;65120;59.304;18.294;2023-03-12T03:41:24;4.22;;;0.30;;
76310;SDS011;65120;59.304;18.294;2023-03-12T03:43:54;1.08;;;0.30;;
76310;SDS011;65120;59.304;18.294;2023-03-12T03:46:23;2.38;;;0.50;;
76310;SDS011;65120;59.304;18.294;2023-03-12T03:48:50;2.28;;;0.50;;
76310;SDS011;65120;59.304;18.294;2023-03-12T03:51:19;1.40;;;0.43;;
76310;SDS011;65120;59.304;18.294;2023-03-12T03:53:46;0.90;;;0.55;;
76310;SDS011;65120;59.304;18.294;2023-03-12T03:56:13;0.50;;;0.32;;
76310;SDS011;65120;59.304;18.294;2023-03-12T03:58:41;0.50;;;0.30;;
76310;SDS011;65120;59.304;18.294;2023-03-12T04:01:08;0.32;;;0.25;;
76310;SDS011;65120;59.304;18.294;2023-03-12T04:03:37;0.90;;;0.38;;
76310;SDS011;65120;59.304;18.294;2023-03-12T04:06:05;2.38;;;0.50;;
76310;SDS011;65120;59.304;18.294;2023-03-12T04:08:34;1.52;;;0.20;;
76310;SDS011;65120;59.304;18.294;2023-03-12T04:11:05;1.83;;;0.32;;
76310;SDS011;65120;59.304;18.294;2023-03-12T04:13:32;0.88;;;0.28;;
76310;SDS011;65120;59.304;18.294;2023-03-12T04:15:59;0.73;;;0.32;;
76310;SDS011;65120;59.304;18.294;2023-03-12T04:18:26;0.40;;;0.20;;
76310;SDS011;65120;59.304;18.294;2023-03-12T04:20:53;2.50;;;0.40;;
76310;SDS011;65120;59.304;18.294;2023-03-12T04:23:21;2.58;;;0.55;;
76310;SDS011;65120;59.304;18.294;2023-03-12T04:25:49;0.38;;;0.30;;
76310;SDS011;65120;59.304;18.294;2023-03-12T04:28:16;4.35;;;0.40;;
76310;SDS011;65120;59.304;18.294;2023-03-12T04:30:43;1.77;;;0.47;;
76310;SDS011;65120;59.304;18.294;2023-03-12T04:33:09;2.47;;;0.50;;
76310;SDS011;65120;59.304;18.294;2023-03-12T04:35:36;1.42;;;0.60;;
76310;SDS011;65120;59.304;18.294;2023-03-12T04:38:03;1.90;;;0.52;;
76310;SDS011;65120;59.304;18.294;2023-03-12T04:40:30;3.40;;;0.43;;
76310;SDS011;65120;59.304;18.294;2023-03-12T04:42:58;1.55;;;0.52;;
76310;SDS011;65120;59.304;18.294;2023-03-12T04:45:25;1.30;;;0.40;;
76310;SDS011;65120;59.304;18.294;2023-03-12T04:47:52;1.35;;;0.40;;
76310;SDS011;65120;59.304;18.294;2023-03-12T04:50:19;1.48;;;0.43;;
76310;SDS011;65120;59.304;18.294;2023-03-12T04:52:46;2.25;;;0.47;;
76310;SDS011;65120;59.304;18.294;2023-03-12T04:55:13;6.57;;;0.40;;
76310;SDS011;65120;59.304;18.294;2023-03-12T04:57:40;1.95;;;0.43;;
76310;SDS011;65120;59.304;18.294;2023-03-12T05:00:09;1.02;;;0.40;;
76310;SDS011;65120;59.304;18.294;2023-03-12T05:02:37;2.17;;;0.68;;
76310;SDS011;65120;59.304;18.294;2023-03-12T05:05:05;4.97;;;0.40;;
76310;SDS011;65120;59.304;18.294;2023-03-12T05:07:33;1.25;;;0.50;;
76310;SDS011;65120;59.304;18.294;2023-03-12T05:10:00;2.40;;;0.40;;
76310;SDS011;65120;59.304;18.294;2023-03-12T05:12:27;1.50;;;1.02;;
76310;SDS011;65120;59.304;18.294;2023-03-12T05:14:54;2.05;;;0.50;;
76310;SDS011;65120;59.304;18.294;2023-03-12T05:17:22;1.20;;;0.40;;
76310;SDS011;65120;59.304;18.294;2023-03-12T05:19:49;1.90;;;0.40;;
76310;SDS011;65120;59.304;18.294;2023-03-12T05:22:16;5.57;;;0.40;;
76310;SDS011;65120;59.304;18.294;2023-03-12T05:24:43;1.95;;;0.40;;
76310;SDS011;65120;59.304;18.294;2023-03-12T05:27:10;2.38;;;0.60;;
76310;SDS011;65120;59.304;18.294;2023-03-12T05:29:37;3.25;;;0.40;;
76310;SDS011;65120;59.304;18.294;2023-03-12T05:32:05;1.67;;;0.40;;
76310;SDS011;65120;59.304;18.294;2023-03-12T05:34:33;3.17;;;0.55;;
76310;SDS011;65120;59.304;18.294;2023-03-12T05:37:00;2.08;;;0.43;;
76310;SDS011;65120;59.304;18.294;2023-03-12T05:39:27;2.00;;;0.45;;
76310;SDS011;65120;59.304;18.294;2023-03-12T05:41:54;3.50;;;0.50;;
76310;SDS011;65120;59.304;18.294;2023-03-12T05:44:21;2.15;;;0.52;;
76310;SDS011;65120;59.304;18.294;2023-03-12T05:46:49;2.17;;;0.40;;
76310;SDS011;65120;59.304;18.294;2023-03-12T05:49:16;1.50;;;0.30;;
76310;SDS011;65120;59.304;18.294;2023-03-12T05:51:45;1.20;;;0.32;;
76310;SDS011;65120;59.304;18.294;2023-03-12T05:54:12;0.90;;;0.40;;
76310;SDS011;65120;59.304;18.294;2023-03-12T05:56:39;1.58;;;0.30;;
76310;SDS011;65120;59.304;18.294;2023-03-12T05:59:06;2.25;;;0.50;;
76310;SDS011;65120;59.304;18.294;2023-03-12T06:01:34;2.95;;;0.40;;
76310;SDS011;65120;59.304;18.294;2023-03-12T06:04:02;1.20;;;0.45;;
76310;SDS011;65120;59.304;18.294;2023-03-12T06:06:29;1.17;;;0.50;;
76310;SDS011;65120;59.304;18.294;2023-03-12T06:08:57;2.67;;;0.50;;
76310;SDS011;65120;59.304;18.294;2023-03-12T06:11:24;2.90;;;0.75;;
76310;SDS011;65120;59.304;18.294;2023-03-12T06:13:52;3.03;;;0.45;;
76310;SDS011;65120;59.304;18.294;2023-03-12T06:16:19;1.52;;;0.55;;
76310;SDS011;65120;59.304;18.294;2023-03-12T06:18:48;1.70;;;0.30;;
76310;SDS011;65120;59.304;18.294;2023-03-12T06:21:18;1.80;;;0.38;;
76310;SDS011;65120;59.304;18.294;2023-03-12T06:23:46;2.55;;;0.50;;
76310;SDS011;65120;59.304;18.294;2023-03-12T06:26:17;1.98;;;0.30;;
76310;SDS011;65120;59.304;18.294;2023-03-12T06:28:45;2.15;;;0.45;;
76310;SDS011;65120;59.304;18.294;2023-03-12T06:31:13;1.30;;;0.68;;
76310;SDS011;65120;59.304;18.294;2023-03-12T06:33:41;4.00;;;0.80;;
76310;SDS011;65120;59.304;18.294;2023-03-12T06:36:08;1.67;;;0.40;;
76310;SDS011;65120;59.304;18.294;2023-03-12T06:38:36;2.25;;;0.47;;
76310;SDS011;65120;59.304;18.294;2023-03-12T06:41:04;1.20;;;0.40;;
76310;SDS011;65120;59.304;18.294;2023-03-12T06:43:34;1.25;;;0.47;;
76310;SDS011;65120;59.304;18.294;2023-03-12T06:46:03;0.90;;;0.25;;
76310;SDS011;65120;59.304;18.294;2023-03-12T06:48:31;3.38;;;0.40;;
76310;SDS011;65120;59.304;18.294;2023-03-12T06:51:00;0.82;;;0.40;;
76310;SDS011;65120;59.304;18.294;2023-03-12T06:53:27;0.75;;;0.40;;
76310;SDS011;65120;59.304;18.294;2023-03-12T06:55:54;3.50;;;0.20;;
76310;SDS011;65120;59.304;18.294;2023-03-12T06:58:21;1.10;;;0.32;;
76310;SDS011;65120;59.304;18.294;2023-03-12T07:00:50;2.60;;;0.30;;
76310;SDS011;65120;59.304;18.294;2023-03-12T07:03:17;1.48;;;0.30;;
76310;SDS011;65120;59.304;18.294;2023-03-12T07:05:44;0.77;;;0.30;;
76310;SDS011;65120;59.304;18.294;2023-03-12T07:08:11;1.58;;;0.30;;
76310;SDS011;65120;59.304;18.294;2023-03-12T07:10:38;0.80;;;0.30;;
76310;SDS011;65120;59.304;18.294;2023-03-12T07:13:05;2.17;;;0.43;;
76310;SDS011;65120;59.304;18.294;2023-03-12T07:15:32;2.08;;;0.57;;
76310;SDS011;65120;59.304;18.294;2023-03-12T07:18:04;2.97;;;0.50;;
76310;SDS011;65120;59.304;18.294;2023-03-12T07:20:31;0.85;;;0.63;;
76310;SDS011;65120;59.304;18.294;2023-03-12T07:22:59;0.68;;;0.30;;
76310;SDS011;65120;59.304;18.294;2023-03-12T07:25:25;1.45;;;0.20;;
76310;SDS011;65120;59.304;18.294;2023-03-12T07:27:52;4.00;;;0.68;;
76310;SDS011;65120;59.304;18.294;2023-03-12T07:30:19;0.85;;;0.10;;
76310;SDS011;65120;59.304;18.294;2023-03-12T07:32:47;1.10;;;0.20;;
76310;SDS011;65120;59.304;18.294;2023-03-12T07:35:15;2.25;;;0.40;;
76310;SDS011;65120;59.304;18.294;2023-03-12T07:37:42;3.22;;;0.45;;
76310;SDS011;65120;59.304;18.294;2023-03-12T07:40:09;1.13;;;0.45;;
76310;SDS011;65120;59.304;18.294;2023-03-12T07:42:37;3.03;;;0.20;;
76310;SDS011;65120;59.304;18.294;2023-03-12T07:45:04;2.40;;;0.45;;
76310;SDS011;65120;59.304;18.294;2023-03-12T07:47:32;2.45;;;0.52;;
76310;SDS011;65120;59.304;18.294;2023-03-12T07:49:59;0.88;;;0.30;;
76310;SDS011;65120;59.304;18.294;2023-03-12T07:52:27;0.85;;;0.30;;
76310;SDS011;65120;59.304;18.294;2023-03-12T07:54:54;1.42;;;0.40;;
76310;SDS011;65120;59.304;18.294;2023-03-12T07:57:22;0.70;;;0.30;;
76310;SDS011;65120;59.304;18.294;2023-03-12T07:59:49;0.57;;;0.20;;
76310;SDS011;65120;59.304;18.294;2023-03-12T08:02:16;1.10;;;0.38;;
76310;SDS011;65120;59.304;18.294;2023-03-12T08:04:44;0.70;;;0.20;;
76310;SDS011;65120;59.304;18.294;2023-03-12T08:07:11;0.30;;;0.20;;
76310;SDS011;65120;59.304;18.294;2023-03-12T08:09:39;3.60;;;0.30;;
76310;SDS011;65120;59.304;18.294;2023-03-12T08:12:07;0.47;;;0.30;;
76310;SDS011;65120;59.304;18.294;2023-03-12T08:14:34;1.23;;;0.25;;
76310;SDS011;65120;59.304;18.294;2023-03-12T08:17:01;0.70;;;0.30;;
76310;SDS011;65120;59.304;18.294;2023-03-12T08:19:28;0.50;;;0.30;;
76310;SDS011;65120;59.304;18.294;2023-03-12T08:21:55;0.90;;;0.40;;
76310;SDS011;65120;59.304;18.294;2023-03-12T08:24:22;1.83;;;0.20;;
76310;SDS011;65120;59.304;18.294;2023-03-12T08:26:50;0.10;;;0.10;;
76310;SDS011;65120;59.304;18.294;2023-03-12T08:29:17;0.20;;;0.10;;
76310;SDS011;65120;59.304;18.294;2023-03-12T08:31:44;1.17;;;0.20;;
76310;SDS011;65120;59.304;18.294;2023-03-12T08:34:11;0.68;;;0.10;;
76310;SDS011;65120;59.304;18.294;2023-03-12T08:36:38;0.77;;;0.10;;
76310;SDS011;65120;59.304;18.294;2023-03-12T08:39:04;1.05;;;0.50;;
76310;SDS011;65120;59.304;18.294;2023-03-12T08:41:31;0.80;;;0.10;;
76310;SDS011;65120;59.304;18.294;2023-03-12T08:44:00;0.32;;;0.20;;
76310;SDS011;65120;59.304;18.294;2023-03-12T08:46:26;1.75;;;0.10;;
76310;SDS011;65120;59.304;18.294;2023-03-12T08:48:53;0.17;;;0.10;;
76310;SDS011;65120;59.304;18.294;2023-03-12T08:51:20;1.27;;;0.20;;
76310;SDS011;65120;59.304;18.294;2023-03-12T08:53:47;0.88;;;0.10;;
76310;SDS011;65120;59.304;18.294;2023-03-12T08:56:14;0.28;;;0.10;;
76310;SDS011;65120;59.304;18.294;2023-03-12T08:58:41;0.70;;;0.10;;
76310;SDS011;65120;59.304;18.294;2023-03-12T09:01:09;0.30;;;0.10;;
76310;SDS011;65120;59.304;18.294;2023-03-12T09:03:37;0.50;;;0.20;;
76310;SDS011;65120;59.304;18.294;2023-03-12T09:06:05;0.35;;;0.10;;
76310;SDS011;65120;59.304;18.294;2023-03-12T09:08:37;2.20;;;0.20;;
76310;SDS011;65120;59.304;18.294;2023-03-12T09:11:04;0.80;;;0.10;;
76310;SDS011;65120;59.304;18.294;2023-03-12T09:13:31;0.30;;;0.00;;
76310;SDS011;65120;59.304;18.294;2023-03-12T09:15:58;0.60;;;0.20;;
76310;SDS011;65120;59.304;18.294;2023-03-12T09:18:27;0.45;;;0.10;;
76310;SDS011;65120;59.304;18.294;2023-03-12T09:20:55;5.68;;;0.10;;
76310;SDS011;65120;59.304;18.294;2023-03-12T09:23:22;1.17;;;0.10;;
76310;SDS011;65120;59.304;18.294;2023-03-12T09:25:50;1.08;;;0.20;;
76310;SDS011;65120;59.304;18.294;2023-03-12T09:28:17;0.20;;;0.10;;
76310;SDS011;65120;59.304;18.294;2023-03-12T09:30:45;1.02;;;0.10;;
76310;SDS011;65120;59.304;18.294;2023-03-12T09:33:12;1.30;;;0.10;;
76310;SDS011;65120;59.304;18.294;2023-03-12T09:35:41;4.47;;;0.10;;
76310;SDS011;65120;59.304;18.294;2023-03-12T09:38:10;0.25;;;0.10;;
76310;SDS011;65120;59.304;18.294;2023-03-12T09:40:42;0.38;;;0.20;;
76310;SDS011;65120;59.304;18.294;2023-03-12T09:43:14;0.10;;;0.10;;
76310;SDS011;65120;59.304;18.294;2023-03-12T09:45:47;0.32;;;0.00;;
76310;SDS011;65120;59.304;18.294;2023-03-12T09:48:16;2.30;;;0.10;;
76310;SDS011;65120;59.304;18.294;2023-03-12T09:50:48;2.20;;;0.13;;
76310;SDS011;65120;59.304;18.294;2023-03-12T09:53:19;1.05;;;0.20;;
76310;SDS011;65120;59.304;18.294;2023-03-12T09:55:51;0.60;;;0.10;;
76310;SDS011;65120;59.304;18.294;2023-03-12T09:58:21;0.35;;;0.10;;
76310;SDS011;65120;59.304;18.294;2023-03-12T10:00:52;0.17;;;0.10;;
76310;SDS011;65120;59.304;18.294;2023-03-12T10:03:32;7.68;;;0.85;;
76310;SDS011;65120;59.304;18.294;2023-03-12T10:06:20;1.58;;;0.10;;
76310;SDS011;65120;59.304;18.294;2023-03-12T10:08:53;0.13;;;0.00;;
76310;SDS011;65120;59.304;18.294;2023-03-12T10:11:31;0.20;;;0.10;;
76310;SDS011;65120;59.304;18.294;2023-03-12T10:14:20;0.68;;;0.10;;
76310;SDS011;65120;59.304;18.294;2023-03-12T10:17:00;2.03;;;0.10;;
76310;SDS011;65120;59.304;18.294;2023-03-12T10:19:45;0.90;;;0.32;;
76310;SDS011;65120;59.304;18.294;2023-03-12T10:22:30;0.38;;;0.10;;
76310;SDS011;65120;59.304;18.294;2023-03-12T10:25:07;1.30;;;0.10;;
76310;SDS011;65120;59.304;18.294;2023-03-12T10:27:41;1.10;;;0.20;;
76310;SDS011;65120;59.304;18.294;2023-03-12T10:30:12;0.77;;;0.10;;
76310;SDS011;65120;59.304;18.294;2023-03-12T10:32:44;0.57;;;0.10;;
76310;SDS011;65120;59.304;18.294;2023-03-12T10:35:15;1.02;;;0.20;;
76310;SDS011;65120;59.304;18.294;2023-03-12T10:37:45;0.22;;;0.10;;
76310;SDS011;65120;59.304;18.294;2023-03-12T10:40:14;2.38;;;0.10;;
76310;SDS011;65120;59.304;18.294;2023-03-12T10:42:42;0.85;;;0.10;;
76310;SDS011;65120;59.304;18.294;2023-03-12T10:45:13;0.77;;;0.10;;
76310;SDS011;65120;59.304;18.294;2023-03-12T10:47:48;0.40;;;0.10;;
76310;SDS011;65120;59.304;18.294;2023-03-12T10:50:18;0.13;;;0.10;;
76310;SDS011;65120;59.304;18.294;2023-03-12T10:52:49;0.20;;;0.10;;
76310;SDS011;65120;59.304;18.294;2023-03-12T10:55:22;4.45;;;0.63;;
76310;SDS011;65120;59.304;18.294;2023-03-12T10:57:51;1.50;;;0.10;;
76310;SDS011;65120;59.304;18.294;2023-03-12T11:00:20;0.40;;;0.10;;
76310;SDS011;65120;59.304;18.294;2023-03-12T11:02:55;5.90;;;0.73;;
76310;SDS011;65120;59.304;18.294;2023-03-12T11:05:24;16.05;;;1.90;;
76310;SDS011;65120;59.304;18.294;2023-03-12T11:07:54;7.90;;;0.70;;
76310;SDS011;65120;59.304;18.294;2023-03-12T11:10:24;0.28;;;0.15;;
76310;SDS011;65120;59.304;18.294;2023-03-12T11:13:00;0.65;;;0.17;;
76310;SDS011;65120;59.304;18.294;2023-03-12T11:15:29;1.63;;;0.40;;
76310;SDS011;65120;59.304;18.294;2023-03-12T11:18:19;1.65;;;0.10;;
76310;SDS011;65120;59.304;18.294;2023-03-12T11:21:11;0.20;;;0.00;;
76310;SDS011;65120;59.304;18.294;2023-03-12T11:23:42;0.38;;;0.10;;
76310;SDS011;65120;59.304;18.294;2023-03-12T11:26:13;1.45;;;0.10;;
76310;SDS011;65120;59.304;18.294;2023-03-12T11:28:45;1.13;;;0.10;;
76310;SDS011;65120;59.304;18.294;2023-03-12T11:31:15;0.20;;;0.10;;
76310;SDS011;65120;59.304;18.294;2023-03-12T11:33:47;0.22;;;0.10;;
76310;SDS011;65120;59.304;18.294;2023-03-12T11:36:30;0.20;;;0.10;;
76310;SDS011;65120;59.304;18.294;2023-03-12T11:39:12;0.43;;;0.10;;
76310;SDS011;65120;59.304;18.294;2023-03-12T11:41:50;0.30;;;0.05;;
76310;SDS011;65120;59.304;18.294;2023-03-12T11:47:14;1.85;;;0.10;;
76310;SDS011;65120;59.304;18.294;2023-03-12T11:50:00;0.13;;;0.10;;
76310;SDS011;65120;59.304;18.294;2023-03-12T11:52:39;0.22;;;0.00;;
76310;SDS011;65120;59.304;18.294;2023-03-12T11:55:22;0.00;;;0.00;;
76310;SDS011;65120;59.304;18.294;2023-03-12T11:58:19;0.60;;;0.03;;
76310;SDS011;65120;59.304;18.294;2023-03-12T12:00:58;0.10;;;0.00;;
76310;SDS011;65120;59.304;18.294;2023-03-12T12:03:54;0.20;;;0.00;;
76310;SDS011;65120;59.304;18.294;2023-03-12T12:06:34;0.10;;;0.00;;
76310;SDS011;65120;59.304;18.294;2023-03-12T12:09:20;0.10;;;0.10;;
76310;SDS011;65120;59.304;18.294;2023-03-12T12:12:07;0.10;;;0.00;;
76310;SDS011;65120;59.304;18.294;2023-03-12T12:14:59;2.13;;;0.10;;
76310;SDS011;65120;59.304;18.294;2023-03-12T12:17:39;0.10;;;0.10;;
76310;SDS011;65120;59.304;18.294;2023-03-12T12:20:23;1.50;;;0.10;;
76310;SDS011;65120;59.304;18.294;2023-03-12T12:23:00;0.10;;;0.00;;
76310;SDS011;65120;59.304;18.294;2023-03-12T12:28:35;0.17;;;0.00;;
76310;SDS011;65120;59.304;18.294;2023-03-12T12:31:28;0.35;;;0.10;;
76310;SDS011;65120;59.304;18.294;2023-03-12T12:34:07;0.90;;;0.10;;
76310;SDS011;65120;59.304;18.294;2023-03-12T12:36:45;2.80;;;0.20;;
76310;SDS011;65120;59.304;18.294;2023-03-12T12:39:17;0.50;;;0.10;;
76310;SDS011;65120;59.304;18.294;2023-03-12T12:41:51;0.10;;;0.00;;
76310;SDS011;65120;59.304;18.294;2023-03-12T12:44:22;1.00;;;0.10;;
76310;SDS011;65120;59.304;18.294;2023-03-12T12:46:54;0.20;;;0.00;;
76310;SDS011;65120;59.304;18.294;2023-03-12T12:49:27;1.58;;;0.00;;
76310;SDS011;65120;59.304;18.294;2023-03-12T12:52:02;1.45;;;0.00;;
76310;SDS011;65120;59.304;18.294;2023-03-12T12:54:33;2.72;;;0.00;;
76310;SDS011;65120;59.304;18.294;2023-03-12T12:57:08;1.35;;;0.00;;
76310;SDS011;65120;59.304;18.294;2023-03-12T12:59:41;0.43;;;0.05;;
76310;SDS011;65120;59.304;18.294;2023-03-12T13:02:15;0.40;;;0.10;;
76310;SDS011;65120;59.304;18.294;2023-03-12T13:04:45;0.00;;;0.00;;
76310;SDS011;65120;59.304;18.294;2023-03-12T13:07:29;0.73;;;0.00;;
76310;SDS011;65120;59.304;18.294;2023-03-12T13:09:58;0.77;;;0.05;;
76310;SDS011;65120;59.304;18.294;2023-03-12T13:12:30;0.30;;;0.03;;
76310;SDS011;65120;59.304;18.294;2023-03-12T13:15:00;0.63;;;0.03;;
76310;SDS011;65120;59.304;18.294;2023-03-12T13:18:02;0.70;;;0.00;;
76310;SDS011;65120;59.304;18.294;2023-03-12T13:20:34;1.25;;;0.00;;
76310;SDS011;65120;59.304;18.294;2023-03-12T13:23:15;0.98;;;0.08;;
76310;SDS011;65120;59.304;18.294;2023-03-12T13:25:59;0.30;;;0.00;;
76310;SDS011;65120;59.304;18.294;2023-03-12T13:28:33;2.38;;;0.10;;
76310;SDS011;65120;59.304;18.294;2023-03-12T13:31:35;0.10;;;0.00;;
76310;SDS011;65120;59.304;18.294;2023-03-12T13:34:25;1.25;;;0.00;;
76310;SDS011;65120;59.304;18.294;2023-03-12T13:37:16;2.65;;;0.00;;
76310;SDS011;65120;59.304;18.294;2023-03-12T13:39:53;1.77;;;0.10;;
76310;SDS011;65120;59.304;18.294;2023-03-12T13:45:24;0.55;;;0.00;;
76310;SDS011;65120;59.304;18.294;2023-03-12T13:47:57;0.10;;;0.00;;
76310;SDS011;65120;59.304;18.294;2023-03-12T13:50:26;0.15;;;0.00;;
76310;SDS011;65120;59.304;18.294;2023-03-12T13:52:59;0.10;;;0.00;;
76310;SDS011;65120;59.304;18.294;2023-03-12T13:55:28;0.20;;;0.00;;
76310;SDS011;65120;59.304;18.294;2023-03-12T13:57:58;0.00;;;0.00;;
76310;SDS011;65120;59.304;18.294;2023-03-12T14:00:35;0.10;;;0.00;;
76310;SDS011;65120;59.304;18.294;2023-03-12T14:03:08;0.38;;;0.00;;
76310;SDS011;65120;59.304;18.294;2023-03-12T14:05:44;0.45;;;0.00;;
76310;SDS011;65120;59.304;18.294;2023-03-12T14:11:48;1.55;;;0.00;;
76310;SDS011;65120;59.304;18.294;2023-03-12T14:17:28;1.70;;;0.00;;
76310;SDS011;65120;59.304;18.294;2023-03-12T14:20:00;0.10;;;0.00;;
76310;SDS011;65120;59.304;18.294;2023-03-12T14:22:29;0.20;;;0.10;;
76310;SDS011;65120;59.304;18.294;2023-03-12T14:25:00;2.70;;;0.00;;
76310;SDS011;65120;59.304;18.294;2023-03-12T14:27:30;0.40;;;0.00;;
76310;SDS011;65120;59.304;18.294;2023-03-12T14:30:03;0.98;;;0.22;;
76310;SDS011;65120;59.304;18.294;2023-03-12T14:32:37;0.45;;;0.00;;
76310;SDS011;65120;59.304;18.294;2023-03-12T14:35:12;0.10;;;0.00;;
76310;SDS011;65120;59.304;18.294;2023-03-12T14:37:43;2.78;;;0.00;;
76310;SDS011;65120;59.304;18.294;2023-03-12T14:40:20;0.50;;;0.00;;
76310;SDS011;65120;59.304;18.294;2023-03-12T14:42:51;2.65;;;0.00;;
76310;SDS011;65120;59.304;18.294;2023-03-12T14:45:20;0.10;;;0.00;;
76310;SDS011;65120;59.304;18.294;2023-03-12T14:47:51;0.52;;;0.00;;
76310;SDS011;65120;59.304;18.294;2023-03-12T14:50:22;0.47;;;0.10;;
76310;SDS011;65120;59.304;18.294;2023-03-12T14:52:51;0.03;;;0.00;;
76310;SDS011;65120;59.304;18.294;2023-03-12T14:55:19;1.55;;;0.00;;
76310;SDS011;65120;59.304;18.294;2023-03-12T14:57:48;2.42;;;0.00;;
76310;SDS011;65120;59.304;18.294;2023-03-12T15:00:24;0.25;;;0.15;;
76310;SDS011;65120;59.304;18.294;2023-03-12T15:02:50;3.22;;;0.10;;
76310;SDS011;65120;59.304;18.294;2023-03-12T15:05:20;0.70;;;0.00;;
76310;SDS011;65120;59.304;18.294;2023-03-12T15:07:49;0.10;;;0.00;;